Terminal Aerodrome Forecast
Issued by NWS

Home | Current Version | Previous Version | Text Only | Print | Product List | Glossary On
Versions: 1 2 3 4 5 6 7 8 9 10 11 12 13 14 15 16 17 18 19 20 21 22 23 24 25 26 27 28 29 30 31 32 33 34 35 36
000
FTUS42 KMFL 250835 AAC
TAFMIA
TAF AMD
KMIA 250835Z 2509/2606 24005KT 1/4SM FG BKN001 BKN010 BKN030
      TEMPO 2509/2512 23003KT 0SM FG VV001
     FM251200 23005KT 3SM BR SCT003 BKN010
      TEMPO 2512/2513 00000KT 1/2SM FG BKN003
     FM251300 25004KT P6SM FEW003 SCT010 BKN030
     FM251600 22005KT P6SM SCT030 BKN060
     FM251900 18009KT P6SM SCT035
     FM260000 23006KT P6SM SCT050
     FM260500 28005KT P6SM SCT050=

USA.gov is the U.S. government's official web portal to all federal, state and local government web resources and services.